sensor_id;sensor_type;location;lat;lon;timestamp;P1;durP1;ratioP1;P2;durP2;ratioP2
16634;SDS011;8431;52.458;9.998;2022-11-11T00:00:34;4.63;;;2.00;;
16634;SDS011;8431;52.458;9.998;2022-11-11T00:03:02;4.40;;;1.70;;
16634;SDS011;8431;52.458;9.998;2022-11-11T00:05:31;6.18;;;2.30;;
16634;SDS011;8431;52.458;9.998;2022-11-11T00:07:59;6.13;;;1.80;;
16634;SDS011;8431;52.458;9.998;2022-11-11T00:10:26;5.63;;;1.70;;
16634;SDS011;8431;52.458;9.998;2022-11-11T00:12:57;2.60;;;1.42;;
16634;SDS011;8431;52.458;9.998;2022-11-11T00:15:24;2.72;;;1.88;;
16634;SDS011;8431;52.458;9.998;2022-11-11T00:17:52;3.75;;;1.80;;
16634;SDS011;8431;52.458;9.998;2022-11-11T00:20:37;8.23;;;1.70;;
16634;SDS011;8431;52.458;9.998;2022-11-11T00:23:22;3.75;;;1.83;;
16634;SDS011;8431;52.458;9.998;2022-11-11T00:26:11;4.55;;;1.60;;
16634;SDS011;8431;52.458;9.998;2022-11-11T00:28:40;4.72;;;1.83;;
16634;SDS011;8431;52.458;9.998;2022-11-11T00:31:07;5.00;;;1.58;;
16634;SDS011;8431;52.458;9.998;2022-11-11T00:33:37;4.20;;;1.85;;
16634;SDS011;8431;52.458;9.998;2022-11-11T00:36:05;4.05;;;1.65;;
16634;SDS011;8431;52.458;9.998;2022-11-11T00:38:31;7.70;;;2.85;;
16634;SDS011;8431;52.458;9.998;2022-11-11T00:41:11;4.95;;;1.67;;
16634;SDS011;8431;52.458;9.998;2022-11-11T00:43:39;4.55;;;2.35;;
16634;SDS011;8431;52.458;9.998;2022-11-11T00:46:06;3.95;;;1.80;;
16634;SDS011;8431;52.458;9.998;2022-11-11T00:48:52;4.47;;;1.90;;
16634;SDS011;8431;52.458;9.998;2022-11-11T00:51:37;3.60;;;1.52;;
16634;SDS011;8431;52.458;9.998;2022-11-11T00:54:04;4.15;;;1.73;;
16634;SDS011;8431;52.458;9.998;2022-11-11T00:56:32;4.43;;;1.60;;
16634;SDS011;8431;52.458;9.998;2022-11-11T00:59:00;5.68;;;2.00;;
16634;SDS011;8431;52.458;9.998;2022-11-11T01:01:28;5.47;;;1.73;;
16634;SDS011;8431;52.458;9.998;2022-11-11T01:03:56;5.10;;;1.70;;
16634;SDS011;8431;52.458;9.998;2022-11-11T01:06:23;5.07;;;1.90;;
16634;SDS011;8431;52.458;9.998;2022-11-11T01:08:51;5.20;;;1.58;;
16634;SDS011;8431;52.458;9.998;2022-11-11T01:11:19;4.15;;;1.60;;
16634;SDS011;8431;52.458;9.998;2022-11-11T01:13:48;5.43;;;2.08;;
16634;SDS011;8431;52.458;9.998;2022-11-11T01:16:16;3.08;;;1.83;;
16634;SDS011;8431;52.458;9.998;2022-11-11T01:18:45;5.50;;;1.85;;
16634;SDS011;8431;52.458;9.998;2022-11-11T01:21:15;4.78;;;2.35;;
16634;SDS011;8431;52.458;9.998;2022-11-11T01:23:44;3.55;;;1.80;;
16634;SDS011;8431;52.458;9.998;2022-11-11T01:26:13;5.03;;;2.10;;
16634;SDS011;8431;52.458;9.998;2022-11-11T01:28:42;6.78;;;1.88;;
16634;SDS011;8431;52.458;9.998;2022-11-11T01:31:10;5.65;;;1.95;;
16634;SDS011;8431;52.458;9.998;2022-11-11T01:33:39;3.38;;;2.00;;
16634;SDS011;8431;52.458;9.998;2022-11-11T01:36:07;1.90;;;1.60;;
16634;SDS011;8431;52.458;9.998;2022-11-11T01:38:36;7.40;;;2.25;;
16634;SDS011;8431;52.458;9.998;2022-11-11T01:41:07;4.72;;;1.90;;
16634;SDS011;8431;52.458;9.998;2022-11-11T01:43:54;4.88;;;1.77;;
16634;SDS011;8431;52.458;9.998;2022-11-11T01:46:29;6.82;;;2.20;;
16634;SDS011;8431;52.458;9.998;2022-11-11T01:49:02;5.15;;;2.13;;
16634;SDS011;8431;52.458;9.998;2022-11-11T01:51:51;3.53;;;1.92;;
16634;SDS011;8431;52.458;9.998;2022-11-11T01:54:25;4.03;;;1.85;;
16634;SDS011;8431;52.458;9.998;2022-11-11T01:56:59;3.35;;;2.03;;
16634;SDS011;8431;52.458;9.998;2022-11-11T01:59:31;5.20;;;1.70;;
16634;SDS011;8431;52.458;9.998;2022-11-11T02:02:00;5.93;;;2.42;;
16634;SDS011;8431;52.458;9.998;2022-11-11T02:04:33;5.82;;;1.80;;
16634;SDS011;8431;52.458;9.998;2022-11-11T02:07:19;2.40;;;1.77;;
16634;SDS011;8431;52.458;9.998;2022-11-11T02:09:49;3.47;;;1.98;;
16634;SDS011;8431;52.458;9.998;2022-11-11T02:12:17;3.65;;;1.85;;
16634;SDS011;8431;52.458;9.998;2022-11-11T02:15:02;4.15;;;1.88;;
16634;SDS011;8431;52.458;9.998;2022-11-11T02:17:31;2.53;;;1.48;;
16634;SDS011;8431;52.458;9.998;2022-11-11T02:19:58;4.45;;;1.90;;
16634;SDS011;8431;52.458;9.998;2022-11-11T02:22:35;4.15;;;2.00;;
16634;SDS011;8431;52.458;9.998;2022-11-11T02:25:10;4.57;;;2.55;;
16634;SDS011;8431;52.458;9.998;2022-11-11T02:27:42;4.72;;;3.22;;
16634;SDS011;8431;52.458;9.998;2022-11-11T02:30:13;6.60;;;5.88;;
16634;SDS011;8431;52.458;9.998;2022-11-11T02:32:42;10.38;;;6.43;;
16634;SDS011;8431;52.458;9.998;2022-11-11T02:35:13;10.27;;;7.95;;
16634;SDS011;8431;52.458;9.998;2022-11-11T02:37:42;13.00;;;8.05;;
16634;SDS011;8431;52.458;9.998;2022-11-11T02:40:13;10.95;;;8.50;;
16634;SDS011;8431;52.458;9.998;2022-11-11T02:42:43;9.82;;;8.23;;
16634;SDS011;8431;52.458;9.998;2022-11-11T02:45:10;12.70;;;6.95;;
16634;SDS011;8431;52.458;9.998;2022-11-11T02:47:37;10.82;;;6.90;;
16634;SDS011;8431;52.458;9.998;2022-11-11T02:50:04;15.52;;;5.88;;
16634;SDS011;8431;52.458;9.998;2022-11-11T02:52:32;7.93;;;4.60;;
16634;SDS011;8431;52.458;9.998;2022-11-11T02:54:59;5.35;;;3.90;;
16634;SDS011;8431;52.458;9.998;2022-11-11T02:57:28;5.60;;;3.30;;
16634;SDS011;8431;52.458;9.998;2022-11-11T02:59:56;3.38;;;2.45;;
16634;SDS011;8431;52.458;9.998;2022-11-11T03:02:25;3.30;;;2.13;;
16634;SDS011;8431;52.458;9.998;2022-11-11T03:04:52;6.32;;;2.45;;
16634;SDS011;8431;52.458;9.998;2022-11-11T03:07:19;3.38;;;2.33;;
16634;SDS011;8431;52.458;9.998;2022-11-11T03:09:46;5.75;;;2.22;;
16634;SDS011;8431;52.458;9.998;2022-11-11T03:12:14;7.10;;;2.53;;
16634;SDS011;8431;52.458;9.998;2022-11-11T03:14:42;3.22;;;1.88;;
16634;SDS011;8431;52.458;9.998;2022-11-11T03:17:09;5.95;;;1.80;;
16634;SDS011;8431;52.458;9.998;2022-11-11T03:19:53;3.95;;;2.28;;
16634;SDS011;8431;52.458;9.998;2022-11-11T03:22:41;4.45;;;1.90;;
16634;SDS011;8431;52.458;9.998;2022-11-11T03:25:07;3.17;;;1.98;;
16634;SDS011;8431;52.458;9.998;2022-11-11T03:27:52;8.15;;;2.03;;
16634;SDS011;8431;52.458;9.998;2022-11-11T03:30:20;1.95;;;1.77;;
16634;SDS011;8431;52.458;9.998;2022-11-11T03:32:47;5.65;;;2.10;;
16634;SDS011;8431;52.458;9.998;2022-11-11T03:35:14;4.93;;;2.20;;
16634;SDS011;8431;52.458;9.998;2022-11-11T03:37:41;2.22;;;1.73;;
16634;SDS011;8431;52.458;9.998;2022-11-11T03:40:40;3.00;;;1.90;;
16634;SDS011;8431;52.458;9.998;2022-11-11T03:43:08;3.92;;;2.08;;
16634;SDS011;8431;52.458;9.998;2022-11-11T03:45:37;5.50;;;2.10;;
16634;SDS011;8431;52.458;9.998;2022-11-11T03:48:04;3.78;;;1.92;;
16634;SDS011;8431;52.458;9.998;2022-11-11T03:50:32;7.57;;;2.50;;
16634;SDS011;8431;52.458;9.998;2022-11-11T03:52:59;4.78;;;1.88;;
16634;SDS011;8431;52.458;9.998;2022-11-11T03:55:26;4.28;;;2.10;;
16634;SDS011;8431;52.458;9.998;2022-11-11T03:57:53;4.38;;;2.00;;
16634;SDS011;8431;52.458;9.998;2022-11-11T04:00:21;3.55;;;2.05;;
16634;SDS011;8431;52.458;9.998;2022-11-11T04:02:51;1.58;;;1.48;;
16634;SDS011;8431;52.458;9.998;2022-11-11T04:05:43;4.55;;;2.40;;
16634;SDS011;8431;52.458;9.998;2022-11-11T04:08:42;3.28;;;1.58;;
16634;SDS011;8431;52.458;9.998;2022-11-11T04:11:28;3.05;;;1.55;;
16634;SDS011;8431;52.458;9.998;2022-11-11T04:13:57;2.13;;;1.70;;
16634;SDS011;8431;52.458;9.998;2022-11-11T04:16:46;4.43;;;2.08;;
16634;SDS011;8431;52.458;9.998;2022-11-11T04:19:14;3.42;;;2.03;;
16634;SDS011;8431;52.458;9.998;2022-11-11T04:21:58;5.45;;;2.25;;
16634;SDS011;8431;52.458;9.998;2022-11-11T04:24:26;3.15;;;1.52;;
16634;SDS011;8431;52.458;9.998;2022-11-11T04:27:10;4.63;;;2.20;;
16634;SDS011;8431;52.458;9.998;2022-11-11T04:29:39;3.28;;;2.85;;
16634;SDS011;8431;52.458;9.998;2022-11-11T04:32:06;3.60;;;1.80;;
16634;SDS011;8431;52.458;9.998;2022-11-11T04:34:53;3.45;;;1.63;;
16634;SDS011;8431;52.458;9.998;2022-11-11T04:37:21;2.85;;;1.73;;
16634;SDS011;8431;52.458;9.998;2022-11-11T04:39:49;2.15;;;1.90;;
16634;SDS011;8431;52.458;9.998;2022-11-11T04:42:36;3.10;;;1.70;;
16634;SDS011;8431;52.458;9.998;2022-11-11T04:45:04;3.90;;;1.88;;
16634;SDS011;8431;52.458;9.998;2022-11-11T04:47:53;3.53;;;1.73;;
16634;SDS011;8431;52.458;9.998;2022-11-11T04:50:23;2.58;;;1.80;;
16634;SDS011;8431;52.458;9.998;2022-11-11T04:52:51;2.25;;;1.35;;
16634;SDS011;8431;52.458;9.998;2022-11-11T04:55:18;3.65;;;1.83;;
16634;SDS011;8431;52.458;9.998;2022-11-11T04:58:03;2.35;;;1.50;;
16634;SDS011;8431;52.458;9.998;2022-11-11T05:00:30;4.30;;;2.00;;
16634;SDS011;8431;52.458;9.998;2022-11-11T05:02:57;2.70;;;1.88;;
16634;SDS011;8431;52.458;9.998;2022-11-11T05:05:42;5.05;;;2.10;;
16634;SDS011;8431;52.458;9.998;2022-11-11T05:08:28;3.22;;;1.70;;
16634;SDS011;8431;52.458;9.998;2022-11-11T05:11:13;2.33;;;1.67;;
16634;SDS011;8431;52.458;9.998;2022-11-11T05:13:40;2.05;;;1.55;;
16634;SDS011;8431;52.458;9.998;2022-11-11T05:16:25;5.18;;;2.05;;
16634;SDS011;8431;52.458;9.998;2022-11-11T05:19:12;4.25;;;1.95;;
16634;SDS011;8431;52.458;9.998;2022-11-11T05:22:00;3.53;;;2.13;;
16634;SDS011;8431;52.458;9.998;2022-11-11T05:24:33;1.83;;;1.73;;
16634;SDS011;8431;52.458;9.998;2022-11-11T05:27:17;2.83;;;2.60;;
16634;SDS011;8431;52.458;9.998;2022-11-11T05:29:45;2.20;;;2.00;;
16634;SDS011;8431;52.458;9.998;2022-11-11T05:32:14;2.75;;;2.00;;
16634;SDS011;8431;52.458;9.998;2022-11-11T05:34:42;4.32;;;2.17;;
16634;SDS011;8431;52.458;9.998;2022-11-11T05:37:11;3.50;;;1.95;;
16634;SDS011;8431;52.458;9.998;2022-11-11T05:39:38;3.20;;;1.83;;
16634;SDS011;8431;52.458;9.998;2022-11-11T05:42:06;5.05;;;2.55;;
16634;SDS011;8431;52.458;9.998;2022-11-11T05:44:33;5.03;;;2.75;;
16634;SDS011;8431;52.458;9.998;2022-11-11T05:47:00;3.90;;;2.42;;
16634;SDS011;8431;52.458;9.998;2022-11-11T05:49:27;6.35;;;2.58;;
16634;SDS011;8431;52.458;9.998;2022-11-11T05:51:54;2.85;;;2.50;;
16634;SDS011;8431;52.458;9.998;2022-11-11T05:54:22;2.70;;;2.40;;
16634;SDS011;8431;52.458;9.998;2022-11-11T05:56:50;4.47;;;2.40;;
16634;SDS011;8431;52.458;9.998;2022-11-11T05:59:17;3.13;;;2.40;;
16634;SDS011;8431;52.458;9.998;2022-11-11T06:01:44;6.10;;;2.58;;
16634;SDS011;8431;52.458;9.998;2022-11-11T06:04:11;3.53;;;2.80;;
16634;SDS011;8431;52.458;9.998;2022-11-11T06:06:38;5.70;;;2.72;;
16634;SDS011;8431;52.458;9.998;2022-11-11T06:09:05;5.00;;;2.70;;
16634;SDS011;8431;52.458;9.998;2022-11-11T06:11:34;2.90;;;2.70;;
16634;SDS011;8431;52.458;9.998;2022-11-11T06:14:02;3.42;;;2.50;;
16634;SDS011;8431;52.458;9.998;2022-11-11T06:16:29;2.65;;;2.15;;
16634;SDS011;8431;52.458;9.998;2022-11-11T06:18:56;5.13;;;2.13;;
16634;SDS011;8431;52.458;9.998;2022-11-11T06:21:29;3.17;;;1.92;;
16634;SDS011;8431;52.458;9.998;2022-11-11T06:24:17;6.10;;;2.00;;
16634;SDS011;8431;52.458;9.998;2022-11-11T06:26:45;3.13;;;2.10;;
16634;SDS011;8431;52.458;9.998;2022-11-11T06:29:11;5.85;;;2.17;;
16634;SDS011;8431;52.458;9.998;2022-11-11T06:31:38;5.90;;;2.05;;
16634;SDS011;8431;52.458;9.998;2022-11-11T06:34:05;2.58;;;2.15;;
16634;SDS011;8431;52.458;9.998;2022-11-11T06:36:32;4.82;;;2.20;;
16634;SDS011;8431;52.458;9.998;2022-11-11T06:38:59;9.77;;;2.60;;
16634;SDS011;8431;52.458;9.998;2022-11-11T06:41:26;4.32;;;2.10;;
16634;SDS011;8431;52.458;9.998;2022-11-11T06:43:55;3.47;;;1.75;;
16634;SDS011;8431;52.458;9.998;2022-11-11T06:46:22;4.53;;;2.50;;
16634;SDS011;8431;52.458;9.998;2022-11-11T06:48:50;3.28;;;2.35;;
16634;SDS011;8431;52.458;9.998;2022-11-11T06:51:17;4.70;;;2.30;;
16634;SDS011;8431;52.458;9.998;2022-11-11T06:53:45;6.28;;;1.88;;
16634;SDS011;8431;52.458;9.998;2022-11-11T06:56:12;5.25;;;2.60;;
16634;SDS011;8431;52.458;9.998;2022-11-11T06:58:39;4.57;;;2.03;;
16634;SDS011;8431;52.458;9.998;2022-11-11T07:01:08;5.10;;;2.38;;
16634;SDS011;8431;52.458;9.998;2022-11-11T07:03:35;4.43;;;2.45;;
16634;SDS011;8431;52.458;9.998;2022-11-11T07:06:03;3.55;;;2.25;;
16634;SDS011;8431;52.458;9.998;2022-11-11T07:08:31;4.63;;;2.60;;
16634;SDS011;8431;52.458;9.998;2022-11-11T07:10:58;4.40;;;2.25;;
16634;SDS011;8431;52.458;9.998;2022-11-11T07:13:26;5.97;;;2.63;;
16634;SDS011;8431;52.458;9.998;2022-11-11T07:15:53;5.35;;;2.40;;
16634;SDS011;8431;52.458;9.998;2022-11-11T07:18:21;3.05;;;2.40;;
16634;SDS011;8431;52.458;9.998;2022-11-11T07:20:48;4.35;;;2.35;;
16634;SDS011;8431;52.458;9.998;2022-11-11T07:23:15;6.32;;;2.58;;
16634;SDS011;8431;52.458;9.998;2022-11-11T07:25:42;2.70;;;2.10;;
16634;SDS011;8431;52.458;9.998;2022-11-11T07:28:10;4.03;;;2.40;;
16634;SDS011;8431;52.458;9.998;2022-11-11T07:30:37;2.40;;;2.05;;
16634;SDS011;8431;52.458;9.998;2022-11-11T07:33:05;4.63;;;2.28;;
16634;SDS011;8431;52.458;9.998;2022-11-11T07:35:33;5.07;;;2.10;;
16634;SDS011;8431;52.458;9.998;2022-11-11T07:38:00;6.15;;;2.10;;
16634;SDS011;8431;52.458;9.998;2022-11-11T07:40:27;4.55;;;2.03;;
16634;SDS011;8431;52.458;9.998;2022-11-11T07:42:54;3.42;;;2.33;;
16634;SDS011;8431;52.458;9.998;2022-11-11T07:45:21;2.95;;;1.83;;
16634;SDS011;8431;52.458;9.998;2022-11-11T07:47:48;2.90;;;1.83;;
16634;SDS011;8431;52.458;9.998;2022-11-11T07:50:15;7.40;;;1.90;;
16634;SDS011;8431;52.458;9.998;2022-11-11T07:52:48;2.35;;;1.98;;
16634;SDS011;8431;52.458;9.998;2022-11-11T07:55:15;2.88;;;1.80;;
16634;SDS011;8431;52.458;9.998;2022-11-11T07:57:42;3.00;;;1.80;;
16634;SDS011;8431;52.458;9.998;2022-11-11T08:00:10;2.78;;;1.70;;
16634;SDS011;8431;52.458;9.998;2022-11-11T08:02:38;3.20;;;2.17;;
16634;SDS011;8431;52.458;9.998;2022-11-11T08:05:05;4.45;;;2.10;;
16634;SDS011;8431;52.458;9.998;2022-11-11T08:07:33;1.80;;;1.70;;
16634;SDS011;8431;52.458;9.998;2022-11-11T08:10:02;2.70;;;1.83;;
16634;SDS011;8431;52.458;9.998;2022-11-11T08:12:29;3.88;;;1.80;;
16634;SDS011;8431;52.458;9.998;2022-11-11T08:15:14;4.18;;;1.88;;
16634;SDS011;8431;52.458;9.998;2022-11-11T08:17:41;2.58;;;1.90;;
16634;SDS011;8431;52.458;9.998;2022-11-11T08:20:08;1.83;;;1.42;;
16634;SDS011;8431;52.458;9.998;2022-11-11T08:22:36;4.32;;;2.28;;
16634;SDS011;8431;52.458;9.998;2022-11-11T08:25:06;3.85;;;2.00;;
16634;SDS011;8431;52.458;9.998;2022-11-11T08:27:35;3.83;;;1.65;;
16634;SDS011;8431;52.458;9.998;2022-11-11T08:30:03;3.25;;;1.83;;
16634;SDS011;8431;52.458;9.998;2022-11-11T08:32:32;4.45;;;1.65;;
16634;SDS011;8431;52.458;9.998;2022-11-11T08:34:59;4.05;;;1.50;;
16634;SDS011;8431;52.458;9.998;2022-11-11T08:37:26;3.92;;;1.65;;
16634;SDS011;8431;52.458;9.998;2022-11-11T08:39:54;3.38;;;1.63;;
16634;SDS011;8431;52.458;9.998;2022-11-11T08:42:22;2.55;;;1.67;;
16634;SDS011;8431;52.458;9.998;2022-11-11T08:44:49;2.92;;;1.60;;
16634;SDS011;8431;52.458;9.998;2022-11-11T08:47:17;5.00;;;1.77;;
16634;SDS011;8431;52.458;9.998;2022-11-11T08:49:44;4.45;;;1.75;;
16634;SDS011;8431;52.458;9.998;2022-11-11T08:52:13;3.97;;;1.95;;
16634;SDS011;8431;52.458;9.998;2022-11-11T08:54:41;4.32;;;2.08;;
16634;SDS011;8431;52.458;9.998;2022-11-11T08:57:08;2.55;;;1.77;;
16634;SDS011;8431;52.458;9.998;2022-11-11T08:59:36;2.28;;;1.73;;
16634;SDS011;8431;52.458;9.998;2022-11-11T09:02:03;5.03;;;1.63;;
16634;SDS011;8431;52.458;9.998;2022-11-11T09:04:30;2.55;;;1.63;;
16634;SDS011;8431;52.458;9.998;2022-11-11T09:06:57;3.97;;;1.80;;
16634;SDS011;8431;52.458;9.998;2022-11-11T09:09:24;1.48;;;1.23;;
16634;SDS011;8431;52.458;9.998;2022-11-11T09:11:51;2.03;;;1.20;;
16634;SDS011;8431;52.458;9.998;2022-11-11T09:14:18;3.65;;;1.45;;
16634;SDS011;8431;52.458;9.998;2022-11-11T09:16:47;3.45;;;1.27;;
16634;SDS011;8431;52.458;9.998;2022-11-11T09:19:14;1.52;;;1.40;;
16634;SDS011;8431;52.458;9.998;2022-11-11T09:21:41;3.25;;;1.33;;
16634;SDS011;8431;52.458;9.998;2022-11-11T09:24:08;2.45;;;1.40;;
16634;SDS011;8431;52.458;9.998;2022-11-11T09:26:35;4.15;;;1.40;;
16634;SDS011;8431;52.458;9.998;2022-11-11T09:29:02;3.50;;;1.80;;
16634;SDS011;8431;52.458;9.998;2022-11-11T09:31:29;4.18;;;1.38;;
16634;SDS011;8431;52.458;9.998;2022-11-11T09:33:58;2.22;;;1.42;;
16634;SDS011;8431;52.458;9.998;2022-11-11T09:36:25;2.78;;;1.30;;
16634;SDS011;8431;52.458;9.998;2022-11-11T09:38:52;3.53;;;1.30;;
16634;SDS011;8431;52.458;9.998;2022-11-11T09:41:19;1.45;;;1.30;;
16634;SDS011;8431;52.458;9.998;2022-11-11T09:43:54;3.58;;;1.30;;
16634;SDS011;8431;52.458;9.998;2022-11-11T09:46:26;4.15;;;1.52;;
16634;SDS011;8431;52.458;9.998;2022-11-11T09:52:00;1.85;;;1.20;;
16634;SDS011;8431;52.458;9.998;2022-11-11T09:54:32;5.18;;;1.50;;
16634;SDS011;8431;52.458;9.998;2022-11-11T09:57:04;3.53;;;1.30;;
16634;SDS011;8431;52.458;9.998;2022-11-11T09:59:39;2.90;;;1.48;;
16634;SDS011;8431;52.458;9.998;2022-11-11T10:02:13;1.63;;;1.05;;
16634;SDS011;8431;52.458;9.998;2022-11-11T10:04:47;3.75;;;1.67;;
16634;SDS011;8431;52.458;9.998;2022-11-11T10:07:25;4.18;;;1.75;;
16634;SDS011;8431;52.458;9.998;2022-11-11T10:10:02;4.57;;;1.42;;
16634;SDS011;8431;52.458;9.998;2022-11-11T10:12:34;3.30;;;1.30;;
16634;SDS011;8431;52.458;9.998;2022-11-11T10:15:10;3.63;;;1.80;;
16634;SDS011;8431;52.458;9.998;2022-11-11T10:17:39;3.47;;;1.20;;
16634;SDS011;8431;52.458;9.998;2022-11-11T10:20:14;4.35;;;1.67;;
16634;SDS011;8431;52.458;9.998;2022-11-11T10:22:47;3.95;;;1.38;;
16634;SDS011;8431;52.458;9.998;2022-11-11T10:25:18;2.78;;;1.70;;
16634;SDS011;8431;52.458;9.998;2022-11-11T10:27:48;2.90;;;1.77;;
16634;SDS011;8431;52.458;9.998;2022-11-11T10:30:19;2.15;;;1.20;;
16634;SDS011;8431;52.458;9.998;2022-11-11T10:32:52;2.17;;;1.33;;
16634;SDS011;8431;52.458;9.998;2022-11-11T10:35:23;3.90;;;1.50;;
16634;SDS011;8431;52.458;9.998;2022-11-11T10:37:55;1.80;;;1.10;;
16634;SDS011;8431;52.458;9.998;2022-11-11T10:40:32;3.88;;;1.58;;
16634;SDS011;8431;52.458;9.998;2022-11-11T10:43:03;1.48;;;1.20;;
16634;SDS011;8431;52.458;9.998;2022-11-11T10:45:30;5.78;;;1.27;;
16634;SDS011;8431;52.458;9.998;2022-11-11T10:48:06;1.50;;;1.20;;
16634;SDS011;8431;52.458;9.998;2022-11-11T10:50:38;2.53;;;1.58;;
16634;SDS011;8431;52.458;9.998;2022-11-11T10:53:13;1.30;;;1.20;;
16634;SDS011;8431;52.458;9.998;2022-11-11T10:55:45;2.15;;;1.30;;
16634;SDS011;8431;52.458;9.998;2022-11-11T10:58:15;5.22;;;2.00;;
16634;SDS011;8431;52.458;9.998;2022-11-11T11:00:50;3.20;;;1.33;;
16634;SDS011;8431;52.458;9.998;2022-11-11T11:03:20;3.67;;;1.50;;
16634;SDS011;8431;52.458;9.998;2022-11-11T11:05:51;2.30;;;1.42;;
16634;SDS011;8431;52.458;9.998;2022-11-11T11:08:25;6.43;;;1.40;;
16634;SDS011;8431;52.458;9.998;2022-11-11T11:10:55;2.85;;;1.50;;
16634;SDS011;8431;52.458;9.998;2022-11-11T11:13:26;1.63;;;1.50;;
16634;SDS011;8431;52.458;9.998;2022-11-11T11:15:57;1.30;;;1.10;;
16634;SDS011;8431;52.458;9.998;2022-11-11T11:18:29;3.42;;;1.20;;
16634;SDS011;8431;52.458;9.998;2022-11-11T11:20:57;3.38;;;1.42;;
16634;SDS011;8431;52.458;9.998;2022-11-11T11:23:37;6.72;;;1.52;;
16634;SDS011;8431;52.458;9.998;2022-11-11T11:26:05;2.78;;;1.60;;
16634;SDS011;8431;52.458;9.998;2022-11-11T11:28:34;3.92;;;1.23;;
16634;SDS011;8431;52.458;9.998;2022-11-11T11:31:17;2.92;;;1.35;;
16634;SDS011;8431;52.458;9.998;2022-11-11T11:33:59;1.95;;;1.00;;
16634;SDS011;8431;52.458;9.998;2022-11-11T11:36:26;1.95;;;1.27;;
16634;SDS011;8431;52.458;9.998;2022-11-11T11:38:55;2.55;;;1.20;;
16634;SDS011;8431;52.458;9.998;2022-11-11T11:41:34;2.45;;;1.40;;
16634;SDS011;8431;52.458;9.998;2022-11-11T11:44:02;1.77;;;1.20;;
16634;SDS011;8431;52.458;9.998;2022-11-11T11:46:49;1.33;;;1.00;;
16634;SDS011;8431;52.458;9.998;2022-11-11T11:49:23;3.90;;;1.17;;
16634;SDS011;8431;52.458;9.998;2022-11-11T11:52:01;2.78;;;1.23;;
16634;SDS011;8431;52.458;9.998;2022-11-11T11:54:40;2.58;;;1.15;;
16634;SDS011;8431;52.458;9.998;2022-11-11T11:57:22;4.22;;;1.63;;
16634;SDS011;8431;52.458;9.998;2022-11-11T12:00:12;3.42;;;1.30;;
16634;SDS011;8431;52.458;9.998;2022-11-11T12:02:55;2.35;;;1.15;;
16634;SDS011;8431;52.458;9.998;2022-11-11T12:05:43;2.28;;;1.13;;
16634;SDS011;8431;52.458;9.998;2022-11-11T12:08:20;4.18;;;1.20;;
16634;SDS011;8431;52.458;9.998;2022-11-11T12:11:00;2.22;;;1.27;;
16634;SDS011;8431;52.458;9.998;2022-11-11T12:13:40;2.30;;;1.23;;
16634;SDS011;8431;52.458;9.998;2022-11-11T12:16:22;2.28;;;1.17;;
16634;SDS011;8431;52.458;9.998;2022-11-11T12:19:00;4.45;;;1.02;;
16634;SDS011;8431;52.458;9.998;2022-11-11T12:21:51;5.30;;;1.33;;
16634;SDS011;8431;52.458;9.998;2022-11-11T12:24:30;2.42;;;1.40;;
16634;SDS011;8431;52.458;9.998;2022-11-11T12:27:13;1.40;;;1.27;;
16634;SDS011;8431;52.458;9.998;2022-11-11T12:29:48;2.88;;;1.17;;
16634;SDS011;8431;52.458;9.998;2022-11-11T12:35:25;3.90;;;1.15;;
16634;SDS011;8431;52.458;9.998;2022-11-11T12:38:05;1.55;;;0.90;;
16634;SDS011;8431;52.458;9.998;2022-11-11T12:40:53;2.47;;;1.02;;
16634;SDS011;8431;52.458;9.998;2022-11-11T12:43:40;3.15;;;1.30;;
16634;SDS011;8431;52.458;9.998;2022-11-11T12:46:15;2.38;;;1.13;;
16634;SDS011;8431;52.458;9.998;2022-11-11T12:48:53;3.13;;;1.00;;
16634;SDS011;8431;52.458;9.998;2022-11-11T12:51:32;2.20;;;1.30;;
16634;SDS011;8431;52.458;9.998;2022-11-11T12:54:14;6.30;;;1.38;;
16634;SDS011;8431;52.458;9.998;2022-11-11T12:56:50;1.35;;;1.20;;
16634;SDS011;8431;52.458;9.998;2022-11-11T12:59:23;2.67;;;1.13;;
16634;SDS011;8431;52.458;9.998;2022-11-11T13:02:07;0.95;;;0.95;;
16634;SDS011;8431;52.458;9.998;2022-11-11T13:04:52;1.38;;;0.90;;
16634;SDS011;8431;52.458;9.998;2022-11-11T13:07:31;1.98;;;1.10;;
16634;SDS011;8431;52.458;9.998;2022-11-11T13:10:20;1.45;;;0.82;;
16634;SDS011;8431;52.458;9.998;2022-11-11T13:12:54;1.42;;;0.88;;
16634;SDS011;8431;52.458;9.998;2022-11-11T13:15:36;2.95;;;1.23;;
16634;SDS011;8431;52.458;9.998;2022-11-11T13:18:07;2.83;;;1.20;;
16634;SDS011;8431;52.458;9.998;2022-11-11T13:20:43;2.50;;;0.93;;
16634;SDS011;8431;52.458;9.998;2022-11-11T13:23:16;2.63;;;0.80;;
16634;SDS011;8431;52.458;9.998;2022-11-11T13:25:45;1.10;;;1.00;;
16634;SDS011;8431;52.458;9.998;2022-11-11T13:28:15;1.98;;;1.25;;
16634;SDS011;8431;52.458;9.998;2022-11-11T13:31:03;1.08;;;0.98;;
16634;SDS011;8431;52.458;9.998;2022-11-11T13:33:38;1.15;;;1.10;;
16634;SDS011;8431;52.458;9.998;2022-11-11T13:36:10;3.30;;;1.15;;
16634;SDS011;8431;52.458;9.998;2022-11-11T13:38:44;1.70;;;1.40;;
16634;SDS011;8431;52.458;9.998;2022-11-11T13:41:18;1.58;;;1.30;;
16634;SDS011;8431;52.458;9.998;2022-11-11T13:43:48;4.78;;;1.52;;
16634;SDS011;8431;52.458;9.998;2022-11-11T13:46:30;1.08;;;0.98;;
16634;SDS011;8431;52.458;9.998;2022-11-11T13:48:59;2.58;;;1.20;;
16634;SDS011;8431;52.458;9.998;2022-11-11T13:51:30;1.40;;;1.30;;
16634;SDS011;8431;52.458;9.998;2022-11-11T13:54:03;1.35;;;1.00;;
16634;SDS011;8431;52.458;9.998;2022-11-11T13:56:35;1.25;;;1.25;;
16634;SDS011;8431;52.458;9.998;2022-11-11T13:59:04;2.85;;;1.58;;
16634;SDS011;8431;52.458;9.998;2022-11-11T14:01:34;1.45;;;1.17;;
16634;SDS011;8431;52.458;9.998;2022-11-11T14:04:04;3.38;;;1.52;;
16634;SDS011;8431;52.458;9.998;2022-11-11T14:06:36;1.75;;;1.13;;
16634;SDS011;8431;52.458;9.998;2022-11-11T14:12:36;1.30;;;1.20;;
16634;SDS011;8431;52.458;9.998;2022-11-11T14:15:08;1.15;;;1.05;;
16634;SDS011;8431;52.458;9.998;2022-11-11T14:18:06;4.40;;;1.50;;
16634;SDS011;8431;52.458;9.998;2022-11-11T14:20:37;1.25;;;1.00;;
16634;SDS011;8431;52.458;9.998;2022-11-11T14:23:20;2.83;;;1.20;;
16634;SDS011;8431;52.458;9.998;2022-11-11T14:28:49;0.95;;;0.95;;
16634;SDS011;8431;52.458;9.998;2022-11-11T14:31:31;1.27;;;1.20;;
16634;SDS011;8431;52.458;9.998;2022-11-11T14:34:28;1.73;;;1.20;;
16634;SDS011;8431;52.458;9.998;2022-11-11T14:37:21;1.42;;;1.17;;
16634;SDS011;8431;52.458;9.998;2022-11-11T14:40:08;1.35;;;1.25;;
16634;SDS011;8431;52.458;9.998;2022-11-11T14:42:46;2.10;;;1.63;;
16634;SDS011;8431;52.458;9.998;2022-11-11T14:51:38;4.53;;;2.83;;
16634;SDS011;8431;52.458;9.998;2022-11-11T14:54:22;2.95;;;1.90;;
16634;SDS011;8431;52.458;9.998;2022-11-11T14:57:09;2.45;;;2.00;;
16634;SDS011;8431;52.458;9.998;2022-11-11T14:59:46;2.78;;;1.60;;
16634;SDS011;8431;52.458;9.998;2022-11-11T15:02:20;2.42;;;1.75;;
16634;SDS011;8431;52.458;9.998;2022-11-11T15:04:51;2.13;;;1.83;;
16634;SDS011;8431;52.458;9.998;2022-11-11T15:07:23;2.03;;;1.85;;
16634;SDS011;8431;52.458;9.998;2022-11-11T15:12:52;2.28;;;1.63;;
16634;SDS011;8431;52.458;9.998;2022-11-11T15:15:41;1.73;;;1.63;;
16634;SDS011;8431;52.458;9.998;2022-11-11T15:18:19;2.95;;;1.33;;
16634;SDS011;8431;52.458;9.998;2022-11-11T15:21:01;2.15;;;1.40;;
16634;SDS011;8431;52.458;9.998;2022-11-11T15:23:36;1.42;;;1.35;;
16634;SDS011;8431;52.458;9.998;2022-11-11T15:26:11;3.22;;;1.58;;
16634;SDS011;8431;52.458;9.998;2022-11-11T15:28:58;3.97;;;1.40;;
16634;SDS011;8431;52.458;9.998;2022-11-11T15:31:38;1.65;;;1.55;;
16634;SDS011;8431;52.458;9.998;2022-11-11T15:34:17;2.60;;;1.40;;
16634;SDS011;8431;52.458;9.998;2022-11-11T15:36:52;2.47;;;1.70;;
16634;SDS011;8431;52.458;9.998;2022-11-11T15:39:26;1.88;;;1.70;;
16634;SDS011;8431;52.458;9.998;2022-11-11T15:42:04;2.13;;;1.75;;
16634;SDS011;8431;52.458;9.998;2022-11-11T15:44:36;2.28;;;1.85;;
16634;SDS011;8431;52.458;9.998;2022-11-11T15:47:03;4.30;;;2.22;;
16634;SDS011;8431;52.458;9.998;2022-11-11T15:49:35;2.40;;;2.00;;
16634;SDS011;8431;52.458;9.998;2022-11-11T15:52:02;1.98;;;1.77;;
16634;SDS011;8431;52.458;9.998;2022-11-11T15:54:32;2.20;;;2.10;;